Time;durP1;ratioP1;P1;durP2;ratioP2;P2;SDS_P1;SDS_P2;PMS_P1;PMS_P2;Temp;Humidity;BMP_temperature;BMP_pressure;BME280_temperature;BME280_humidity;BME280_pressure;Samples;Min_cycle;Max_cycle;Signal;HPM_P1;HPM_P2
2021/10/21 00:01:14;;;;;;;11.68;8.25;;;;;;;14.40;61.49;99122.84;5016467;28;20100;-62
2021/10/21 00:03:47;;;;;;;13.07;9.10;;;;;;;14.39;61.47;99131.44;5016387;28;20096;-62
2021/10/21 00:06:20;;;;;;;14.27;9.32;;;;;;;14.38;62.07;99140.00;5016314;28;20076;-62
2021/10/21 00:08:52;;;;;;;13.88;8.90;;;;;;;14.32;61.73;99140.19;5016685;28;20033;-62
2021/10/21 00:11:25;;;;;;;13.48;8.75;;;;;;;14.27;61.91;99141.13;5016263;28;20132;-62
2021/10/21 00:13:55;;;;;;;18.00;8.77;;;;;;;14.13;62.24;99124.31;5016550;28;20220;-62
2021/10/21 00:16:25;;;;;;;12.60;8.48;;;;;;;14.09;62.55;99120.16;5016149;28;20049;-62
2021/10/21 00:18:54;;;;;;;;;;;;;;;14.06;62.83;99124.50;5016577;28;20042;-61
2021/10/21 00:21:25;;;;;;;17.67;9.50;;;;;;;14.07;63.00;99139.88;5016108;28;20008;-62
2021/10/21 00:23:58;;;;;;;13.38;9.07;;;;;;;14.07;62.91;99124.47;5015613;28;20045;-62
2021/10/21 00:26:33;;;;;;;15.05;9.27;;;;;;;14.09;62.88;99116.75;5016021;28;20050;-62
2021/10/21 00:29:02;;;;;;;14.27;9.13;;;;;;;14.08;63.08;99118.47;5015823;28;20096;-62
2021/10/21 00:31:34;;;;;;;16.52;9.07;;;;;;;14.12;62.93;99111.53;5015872;28;20045;-62
2021/10/21 00:34:07;;;;;;;13.38;8.90;;;;;;;14.09;63.46;99106.47;5015837;28;20072;-62
2021/10/21 00:36:40;;;;;;;14.68;9.68;;;;;;;14.13;63.22;99101.22;5015855;28;20514;-62
2021/10/21 00:39:13;;;;;;;12.98;8.73;;;;;;;14.14;63.46;99109.78;4998251;28;20488;-62
2021/10/21 00:41:43;;;;;;;14.90;9.13;;;;;;;14.08;63.36;99090.22;5014936;28;20049;-62
2021/10/21 00:44:20;;;;;;;12.80;8.85;;;;;;;14.10;63.38;99098.75;5015638;28;20046;-62
2021/10/21 00:46:53;;;;;;;14.23;9.00;;;;;;;14.04;63.33;99092.91;5015631;28;20096;-62
2021/10/21 00:49:25;;;;;;;17.38;9.35;;;;;;;14.04;63.37;99082.66;5015413;28;20121;-62
2021/10/21 00:51:59;;;;;;;13.73;8.60;;;;;;;14.02;63.50;99076.72;5015492;28;20042;-62
2021/10/21 00:54:32;;;;;;;12.70;8.75;;;;;;;14.02;63.76;99071.56;5015481;28;20050;-62
2021/10/21 00:57:06;;;;;;;13.50;8.77;;;;;;;14.00;63.60;99071.63;5015703;28;20050;-62
2021/10/21 00:59:40;;;;;;;14.63;9.45;;;;;;;13.99;63.86;99069.94;5015287;28;20046;-62
2021/10/21 01:02:10;;;;;;;13.18;8.93;;;;;;;13.96;64.39;99070.00;5015640;28;20054;-62
2021/10/21 01:04:42;;;;;;;13.05;9.32;;;;;;;13.91;64.44;99066.72;5015296;28;20049;-62
2021/10/21 01:07:14;;;;;;;14.32;8.40;;;;;;;13.88;64.53;99065.94;5015215;28;20045;-62
2021/10/21 01:09:46;;;;;;;13.60;9.25;;;;;;;13.86;64.27;99058.28;5015377;28;20439;-62
2021/10/21 01:12:20;;;;;;;16.48;9.07;;;;;;;13.87;64.41;99046.28;5015106;28;20046;-62
2021/10/21 01:14:52;;;;;;;13.70;9.75;;;;;;;13.86;64.24;99047.19;5015117;28;20136;-62
2021/10/21 01:17:22;;;;;;;13.27;9.23;;;;;;;13.86;64.29;99047.19;5015041;28;20136;-62
2021/10/21 01:19:53;;;;;;;13.15;8.43;;;;;;;13.77;64.50;99047.41;5015491;28;20391;-61
2021/10/21 01:22:27;;;;;;;14.57;9.43;;;;;;;13.71;64.74;99047.53;5014921;28;20042;-62
2021/10/21 01:24:59;;;;;;;14.57;9.18;;;;;;;13.66;64.72;99033.97;5015175;28;20046;-62
2021/10/21 01:27:32;;;;;;;15.20;9.10;;;;;;;13.75;64.63;99028.66;5014837;28;20054;-62
2021/10/21 01:30:01;;;;;;;13.02;9.93;;;;;;;13.69;64.86;99031.34;5014737;28;20045;-62
2021/10/21 01:32:34;;;;;;;;;;;;;;;13.60;65.09;99023.88;5015560;28;20053;-62
2021/10/21 01:35:09;;;;;;;15.15;9.30;;;;;;;13.57;65.45;99031.63;5014599;28;19921;-62
2021/10/21 01:37:42;;;;;;;15.10;9.52;;;;;;;13.52;65.35;99030.91;5014726;28;20053;-62
2021/10/21 01:40:15;;;;;;;14.80;8.98;;;;;;;13.50;65.47;99015.56;5014606;28;20092;-62
2021/10/21 01:42:48;;;;;;;15.80;9.57;;;;;;;13.55;65.75;99003.47;5014453;28;20443;-62
2021/10/21 01:45:23;;;;;;;12.90;8.05;;;;;;;13.50;65.61;99002.75;5014874;28;20054;-62
2021/10/21 01:47:55;;;;;;;15.85;9.48;;;;;;;13.38;65.95;98991.06;5014445;28;20050;-61
2021/10/21 01:50:29;;;;;;;16.80;9.48;;;;;;;13.46;66.02;99005.41;5014724;28;20151;-62
2021/10/21 01:53:02;;;;;;;13.68;9.38;;;;;;;13.41;66.05;98997.84;5014468;28;20042;-62
2021/10/21 01:55:34;;;;;;;14.38;9.80;;;;;;;13.36;66.39;98990.22;5014405;28;20080;-62
2021/10/21 01:58:06;;;;;;;14.90;9.43;;;;;;;13.33;66.49;98985.19;5014377;28;20092;-61
2021/10/21 02:00:39;;;;;;;14.77;9.20;;;;;;;13.26;66.68;98973.41;5014296;28;20128;-61
2021/10/21 02:03:11;;;;;;;15.07;9.35;;;;;;;13.27;66.82;98964.81;5014265;28;20046;-62
2021/10/21 02:05:45;;;;;;;15.45;10.35;;;;;;;13.28;67.10;98963.09;5014209;28;20132;-62
2021/10/21 02:08:18;;;;;;;15.77;10.02;;;;;;;13.33;66.79;98971.53;5014121;28;20050;-61
2021/10/21 02:10:50;;;;;;;13.38;9.00;;;;;;;13.37;66.88;98966.28;5014084;28;20053;-61
2021/10/21 02:13:19;;;;;;;15.80;9.63;;;;;;;13.38;66.73;98962.03;5014106;28;20045;-62
2021/10/21 02:15:52;;;;;;;14.90;10.15;;;;;;;13.30;66.82;98957.06;5014399;28;20385;-62
2021/10/21 02:18:28;;;;;;;13.60;9.57;;;;;;;13.19;67.03;98945.38;5014352;28;20566;-62
2021/10/21 02:20:59;;;;;;;15.75;9.40;;;;;;;13.30;67.32;98953.66;5014229;28;20471;-62
2021/10/21 02:23:32;;;;;;;14.45;9.57;;;;;;;13.31;67.17;98955.34;5013990;28;20058;-62
2021/10/21 02:26:01;;;;;;;13.32;9.38;;;;;;;13.33;67.27;98954.44;5013966;28;20049;-62
2021/10/21 02:28:33;;;;;;;14.60;9.93;;;;;;;13.31;67.53;98953.63;5013807;28;20104;-62
2021/10/21 02:31:03;;;;;;;16.50;9.98;;;;;;;13.14;67.43;98916.47;5014027;28;20053;-62
2021/10/21 02:33:35;;;;;;;14.98;10.05;;;;;;;13.25;67.53;98940.94;5013864;28;20081;-62
2021/10/21 02:36:06;;;;;;;15.70;9.57;;;;;;;13.17;67.85;98937.72;5013754;28;20129;-62
2021/10/21 02:38:38;;;;;;;16.77;10.20;;;;;;;13.17;68.07;98932.59;5014371;28;20081;-62
2021/10/21 02:41:08;;;;;;;14.63;10.10;;;;;;;13.08;68.03;98912.31;5012854;28;20133;-62
2021/10/21 02:43:40;;;;;;;15.02;10.35;;;;;;;13.09;68.20;98916.56;5013697;28;20042;-62
2021/10/21 02:46:09;;;;;;;16.90;10.02;;;;;;;13.08;68.24;98924.28;5013854;28;20046;-61
2021/10/21 02:48:41;;;;;;;17.38;9.38;;;;;;;13.09;68.48;98918.28;5017662;28;20125;-62
2021/10/21 02:51:48;;;;;;;15.25;10.13;;;;;;;13.04;68.54;98913.25;4890595;23;21104;-66
2021/10/21 02:54:19;;;;;;;14.65;9.02;;;;;;;13.00;68.72;98919.31;4978614;28;20039;-61
2021/10/21 02:56:51;;;;;;;14.65;9.43;;;;;;;13.00;68.88;98914.19;4979386;28;20058;-61
2021/10/21 02:59:23;;;;;;;14.65;9.30;;;;;;;13.03;68.89;98903.84;4978596;28;20135;-61
2021/10/21 03:01:55;;;;;;;15.38;9.73;;;;;;;13.01;69.12;98904.75;4978501;28;20105;-61
2021/10/21 03:04:25;;;;;;;14.80;9.02;;;;;;;13.00;69.06;98898.81;4978515;28;20064;-61
2021/10/21 03:06:57;;;;;;;10.63;6.93;;;;;;;12.98;69.28;98895.44;4978778;28;20133;-61
2021/10/21 03:09:30;;;;;;;13.80;8.38;;;;;;;12.99;69.15;98897.13;4978321;28;20300;-61
2021/10/21 03:12:00;;;;;;;17.38;10.40;;;;;;;12.87;69.33;98878.63;4978279;28;20134;-61
2021/10/21 03:14:32;;;;;;;13.90;9.32;;;;;;;12.90;69.55;98891.38;4978561;28;20435;-61
2021/10/21 03:17:01;;;;;;;13.15;8.73;;;;;;;12.91;69.59;98898.19;4978282;28;20496;-61
2021/10/21 03:19:34;;;;;;;14.45;8.80;;;;;;;12.89;69.77;98893.09;4978516;28;20466;-60
2021/10/21 03:22:03;;;;;;;15.40;9.70;;;;;;;12.97;69.72;98893.75;4978075;28;20047;-60
2021/10/21 03:24:37;;;;;;;14.15;9.25;;;;;;;13.06;69.48;98891.00;4978106;28;20043;-61
2021/10/21 03:27:07;;;;;;;15.20;9.98;;;;;;;13.01;69.36;98879.16;4978397;28;20219;-61
2021/10/21 03:29:39;;;;;;;14.13;9.43;;;;;;;13.02;69.38;98861.22;4977929;28;20515;-61
2021/10/21 03:32:09;;;;;;;14.10;9.73;;;;;;;13.05;69.54;98853.41;4977889;28;20061;-61
2021/10/21 03:34:41;;;;;;;14.15;9.57;;;;;;;12.99;69.75;98845.91;4978158;28;20496;-61
2021/10/21 03:37:10;;;;;;;17.15;9.68;;;;;;;12.99;69.53;98856.16;4978142;28;20062;-61
2021/10/21 03:39:44;;;;;;;12.82;9.00;;;;;;;13.02;69.65;98870.59;4977842;28;20102;-61
2021/10/21 03:42:14;;;;;;;14.02;8.77;;;;;;;13.00;69.72;98857.84;4978318;28;20374;-61
2021/10/21 03:44:48;;;;;;;14.63;9.55;;;;;;;12.98;69.75;98857.00;4977772;28;20129;-60
2021/10/21 03:47:27;;;;;;;17.42;8.40;;;;;;;12.94;70.04;98852.00;4978171;28;20058;-63
2021/10/21 03:49:59;;;;;;;15.00;9.82;;;;;;;12.93;70.13;98840.94;4977923;28;20397;-63
2021/10/21 03:52:35;;;;;;;18.75;9.95;;;;;;;12.89;70.11;98839.31;4985512;28;20495;-62
2021/10/21 03:55:10;;;;;;;14.38;10.27;;;;;;;12.89;70.40;98839.31;4997026;28;20080;-63
2021/10/21 03:57:42;;;;;;;14.57;9.70;;;;;;;12.85;70.37;98837.72;4996946;28;20054;-61
2021/10/21 04:00:15;;;;;;;14.73;9.38;;;;;;;12.83;70.52;98825.81;4996914;28;20050;-61
2021/10/21 04:02:44;;;;;;;15.25;10.02;;;;;;;12.86;70.84;98824.00;4996844;28;20097;-61
2021/10/21 04:05:17;;;;;;;13.32;9.38;;;;;;;12.83;70.54;98828.38;4997274;28;20039;-61
2021/10/21 04:07:49;;;;;;;14.35;9.93;;;;;;;12.86;70.83;98844.50;4996777;28;20046;-61
2021/10/21 04:10:23;;;;;;;15.80;9.88;;;;;;;12.86;70.96;98849.63;4996731;28;20046;-61
2021/10/21 04:12:52;;;;;;;15.80;10.32;;;;;;;12.96;70.88;98843.41;4996621;28;20050;-61
2021/10/21 04:15:26;;;;;;;16.45;10.65;;;;;;;12.93;70.88;98840.09;4996910;28;20431;-61
2021/10/21 04:17:58;;;;;;;15.60;10.18;;;;;;;12.87;71.10;98835.94;4996805;28;20077;-61
2021/10/21 04:20:30;;;;;;;14.63;9.10;;;;;;;12.89;70.86;98826.50;4996551;28;20073;-61
2021/10/21 04:22:59;;;;;;;15.27;9.98;;;;;;;12.93;70.90;98825.56;4996689;28;20065;-60
2021/10/21 04:25:33;;;;;;;14.68;9.43;;;;;;;12.98;70.84;98828.03;4996734;28;20089;-61
2021/10/21 04:28:06;;;;;;;16.13;10.00;;;;;;;12.99;70.81;98833.09;4996680;28;20141;-61
2021/10/21 04:30:38;;;;;;;15.77;9.75;;;;;;;12.98;70.87;98835.69;4996629;28;20093;-61
2021/10/21 04:33:08;;;;;;;15.32;10.10;;;;;;;12.90;70.94;98833.31;4996239;28;20054;-61
2021/10/21 04:35:40;;;;;;;;;;;;;;;12.94;71.23;98822.13;4996657;28;20495;-61
2021/10/21 04:38:13;;;;;;;13.95;9.32;;;;;;;12.95;70.98;98811.00;4996540;28;20012;-61
2021/10/21 04:40:47;;;;;;;12.50;8.65;;;;;;;12.83;71.43;98811.28;4996158;28;20046;-61
2021/10/21 04:43:19;;;;;;;15.60;9.68;;;;;;;12.88;71.40;98806.91;4996114;28;20082;-61
2021/10/21 04:45:52;;;;;;;13.98;9.70;;;;;;;12.95;70.84;98797.34;4996636;28;20403;-61
2021/10/21 04:48:24;;;;;;;15.10;9.60;;;;;;;12.91;71.44;98791.44;4996030;28;20051;-61
2021/10/21 04:50:57;;;;;;;15.55;10.38;;;;;;;12.95;71.14;98792.22;4995907;28;20042;-60
2021/10/21 04:53:30;;;;;;;15.57;9.30;;;;;;;12.95;71.48;98795.63;4995655;28;20137;-61
2021/10/21 04:56:04;;;;;;;16.10;10.25;;;;;;;13.01;70.91;98798.03;4995959;28;20077;-61
2021/10/21 04:58:37;;;;;;;16.42;9.55;;;;;;;13.02;71.27;98784.34;4995770;28;20047;-61
2021/10/21 05:01:09;;;;;;;14.52;9.32;;;;;;;13.07;71.02;98780.00;4995780;28;20488;-61
2021/10/21 05:03:42;;;;;;;13.50;9.82;;;;;;;13.08;70.99;98779.09;4995705;28;20050;-61
2021/10/21 05:06:15;;;;;;;14.80;9.88;;;;;;;13.12;70.98;98760.22;4995621;28;20055;-61
2021/10/21 05:08:48;;;;;;;15.60;9.45;;;;;;;13.17;71.02;98758.38;4995513;28;20042;-61
2021/10/21 05:11:22;;;;;;;13.70;9.43;;;;;;;13.20;70.99;98758.28;4995281;28;20061;-61
2021/10/21 05:13:54;;;;;;;13.70;8.95;;;;;;;13.26;70.82;98753.03;4995423;28;20077;-61
2021/10/21 05:16:28;;;;;;;16.25;10.00;;;;;;;13.28;70.49;98761.50;4995430;28;20050;-61
2021/10/21 05:19:00;;;;;;;13.15;8.88;;;;;;;13.13;70.65;98746.53;4996025;28;20539;-61
2021/10/21 05:21:33;;;;;;;13.43;9.25;;;;;;;13.10;70.98;98746.59;4995332;28;20038;-63
2021/10/21 05:24:02;;;;;;;16.27;8.68;;;;;;;13.13;71.15;98745.69;4995237;28;20084;-63
2021/10/21 05:26:36;;;;;;;16.40;9.05;;;;;;;13.19;71.14;98743.81;4995151;28;20042;-63
2021/10/21 05:29:09;;;;;;;13.63;8.75;;;;;;;13.16;71.26;98725.94;4995527;28;20116;-61
2021/10/21 05:31:41;;;;;;;12.63;8.80;;;;;;;13.20;71.00;98739.50;4995096;28;20104;-61
2021/10/21 05:34:13;;;;;;;14.02;9.15;;;;;;;13.11;71.30;98732.91;4995437;28;20102;-61
2021/10/21 05:36:49;;;;;;;12.90;8.63;;;;;;;13.20;71.19;98732.66;4994993;28;20066;-61
2021/10/21 05:39:22;;;;;;;13.35;8.93;;;;;;;13.16;71.45;98730.22;4995020;28;20128;-61
2021/10/21 05:41:56;;;;;;;12.70;9.25;;;;;;;13.22;71.64;98736.03;4994938;28;20057;-61
2021/10/21 05:44:28;;;;;;;12.75;8.25;;;;;;;13.24;71.61;98725.75;4995005;28;20081;-61
2021/10/21 05:47:04;;;;;;;13.18;8.30;;;;;;;13.26;71.60;98740.22;4994786;28;20133;-61
2021/10/21 05:49:37;;;;;;;13.18;8.00;;;;;;;13.34;71.49;98738.25;4995402;28;20436;-61
2021/10/21 05:52:09;;;;;;;12.18;8.40;;;;;;;13.26;71.55;98732.53;4993931;28;20139;-61
2021/10/21 05:54:39;;;;;;;12.05;7.57;;;;;;;13.29;71.63;98732.41;4994786;28;20054;-61
2021/10/21 05:57:13;;;;;;;13.15;8.55;;;;;;;13.29;71.49;98727.28;4994932;28;20104;-61
2021/10/21 05:59:48;;;;;;;14.68;7.72;;;;;;;13.28;71.62;98720.50;4994758;28;20508;-61
2021/10/21 06:02:17;;;;;;;13.38;9.35;;;;;;;13.35;71.46;98716.03;4994622;28;20492;-61
2021/10/21 06:04:50;;;;;;;10.85;7.70;;;;;;;13.39;71.52;98715.06;4994585;28;20169;-61
2021/10/21 06:07:20;;;;;;;11.10;8.18;;;;;;;13.40;71.26;98712.47;4994782;28;20086;-61
2021/10/21 06:09:56;;;;;;;12.25;7.72;;;;;;;13.39;71.40;98692.84;4994509;28;20042;-61
2021/10/21 06:12:43;;;;;;;12.23;8.23;;;;;;;13.37;71.57;98684.38;4994503;28;20050;-61
2021/10/21 06:15:17;;;;;;;11.80;7.25;;;;;;;13.37;71.42;98681.81;4994386;28;20125;-60
2021/10/21 06:17:49;;;;;;;13.32;7.63;;;;;;;13.36;71.43;98680.13;4994442;28;20137;-61
2021/10/21 06:20:22;;;;;;;11.20;7.25;;;;;;;13.29;71.47;98657.28;4994290;28;20046;-61
2021/10/21 06:22:55;;;;;;;12.10;7.30;;;;;;;13.46;71.79;98667.06;4993786;28;20085;-61
2021/10/21 06:25:27;;;;;;;10.32;7.20;;;;;;;13.57;71.21;98675.28;4994582;28;20057;-61
2021/10/21 06:27:59;;;;;;;12.65;7.22;;;;;;;13.60;71.05;98665.78;4994287;28;20050;-61
2021/10/21 06:30:31;;;;;;;11.20;7.07;;;;;;;13.63;71.20;98662.28;4994217;28;20054;-60
2021/10/21 06:33:04;;;;;;;10.05;6.63;;;;;;;13.60;71.09;98665.78;4994818;28;20046;-63
2021/10/21 06:35:36;;;;;;;9.65;6.85;;;;;;;13.60;71.01;98654.69;4994508;28;20101;-61
2021/10/21 06:38:06;;;;;;;9.85;6.90;;;;;;;13.59;71.05;98647.84;4994102;28;20056;-60
2021/10/21 06:40:35;;;;;;;;;;;;;;;13.59;71.03;98653.00;4994546;28;20105;-61
2021/10/21 06:43:09;;;;;;;10.60;6.68;;;;;;;13.58;71.12;98656.47;4994450;28;20299;-61
2021/10/21 06:45:42;;;;;;;11.27;6.93;;;;;;;13.63;70.94;98641.78;4994351;28;20069;-60
2021/10/21 06:48:14;;;;;;;11.38;6.90;;;;;;;13.65;70.95;98642.56;4994138;28;20061;-60
2021/10/21 06:50:47;;;;;;;12.90;7.47;;;;;;;13.71;70.66;98655.19;4994262;28;20077;-61
2021/10/21 06:53:19;;;;;;;11.38;7.18;;;;;;;13.68;70.66;98660.41;4993258;28;20538;-60
2021/10/21 06:55:52;;;;;;;9.68;6.22;;;;;;;13.57;70.53;98650.47;4994107;28;20570;-61
2021/10/21 06:58:27;;;;;;;11.07;6.47;;;;;;;13.76;70.80;98682.38;4994293;28;20550;-61
2021/10/21 07:00:56;;;;;;;11.05;5.80;;;;;;;13.76;70.66;98678.97;4994231;28;20046;-61
2021/10/21 07:03:29;;;;;;;8.55;5.50;;;;;;;13.75;70.50;98675.56;4993928;28;20108;-61
2021/10/21 07:06:02;;;;;;;7.55;5.28;;;;;;;13.80;70.61;98667.72;4993937;28;20048;-63
2021/10/21 07:08:35;;;;;;;8.50;5.90;;;;;;;13.86;70.30;98665.00;4994242;28;20498;-63
2021/10/21 07:11:05;;;;;;;8.98;6.18;;;;;;;13.92;70.50;98667.38;4994040;28;20047;-63
2021/10/21 07:13:38;;;;;;;9.57;5.85;;;;;;;13.96;69.85;98661.28;4993828;28;20054;-63
2021/10/21 07:16:12;;;;;;;10.38;5.93;;;;;;;14.08;69.74;98671.16;4994113;28;20049;-61
2021/10/21 07:18:41;;;;;;;8.60;5.60;;;;;;;14.26;69.70;98667.16;4993752;28;20046;-61
2021/10/21 07:21:18;;;;;;;8.45;6.03;;;;;;;14.27;69.42;98664.56;4993738;28;20448;-61
2021/10/21 07:23:48;;;;;;;7.45;4.88;;;;;;;14.31;68.87;98680.72;4993652;28;20054;-61
2021/10/21 07:26:21;;;;;;;5.75;3.35;;;;;;;14.20;69.12;98673.34;4994085;28;20523;-61
2021/10/21 07:28:55;;;;;;;9.43;5.18;;;;;;;14.23;69.31;98687.81;4993688;28;20050;-60
2021/10/21 07:31:31;;;;;;;7.65;5.03;;;;;;;14.23;69.49;98678.34;4993549;28;20058;-61
2021/10/21 07:34:00;;;;;;;6.88;4.97;;;;;;;14.30;69.36;98669.59;4996442;28;20239;-61
2021/10/21 07:36:29;;;;;;;6.40;4.57;;;;;;;14.44;69.21;98670.03;4997056;28;20053;-61
2021/10/21 07:38:59;;;;;;;8.95;5.28;;;;;;;14.53;68.96;98667.16;4996935;28;20038;-61
2021/10/21 07:41:28;;;;;;;6.07;3.97;;;;;;;14.63;68.33;98663.41;4997259;28;20093;-61
2021/10/21 07:43:59;;;;;;;6.75;4.43;;;;;;;14.80;68.49;98667.97;4996983;28;20046;-61
2021/10/21 07:46:30;;;;;;;6.38;4.43;;;;;;;14.99;67.55;98663.88;4996939;28;20046;-61
2021/10/21 07:48:59;;;;;;;6.55;4.22;;;;;;;15.07;66.89;98658.47;4996980;28;20046;-61
2021/10/21 07:51:31;;;;;;;6.63;4.55;;;;;;;15.27;66.50;98671.44;4996686;28;20073;-61
2021/10/21 07:54:00;;;;;;;6.75;4.32;;;;;;;15.43;66.21;98662.25;4996693;28;20189;-61
2021/10/21 07:56:29;;;;;;;8.20;4.90;;;;;;;15.52;65.91;98646.56;4996728;28;20050;-61
2021/10/21 07:59:04;;;;;;;6.00;3.97;;;;;;;15.41;65.53;98617.78;4996613;28;20039;-61
2021/10/21 08:01:34;;;;;;;8.02;4.90;;;;;;;15.66;65.24;98643.47;4996653;28;20381;-61
2021/10/21 08:04:14;;;;;;;7.50;3.55;;;;;;;15.79;64.51;98666.06;4996610;28;20463;-61
2021/10/21 08:06:44;;;;;;;8.10;4.85;;;;;;;15.80;64.78;98647.19;4996972;28;20134;-60
2021/10/21 08:09:13;;;;;;;8.52;4.68;;;;;;;15.81;64.72;98638.53;4996940;28;20046;-61
2021/10/21 08:11:42;;;;;;;8.43;4.82;;;;;;;16.08;64.64;98637.47;4996340;28;20062;-61
2021/10/21 08:14:13;;;;;;;5.65;3.97;;;;;;;16.01;63.82;98646.34;4996395;28;20058;-60
2021/10/21 08:16:43;;;;;;;7.07;4.95;;;;;;;16.09;63.70;98649.47;4996703;28;20070;-61
2021/10/21 08:19:15;;;;;;;;;;;;;;;16.22;63.73;98643.84;4996837;28;20480;-61
2021/10/21 08:21:47;;;;;;;6.90;4.20;;;;;;;16.18;63.76;98631.97;4996672;28;19961;-61
2021/10/21 08:24:18;;;;;;;6.55;3.88;;;;;;;16.21;63.66;98634.41;4996351;28;20081;-61
2021/10/21 08:26:48;;;;;;;6.65;4.22;;;;;;;16.21;63.81;98631.84;4996617;28;20141;-60
2021/10/21 08:29:22;;;;;;;8.75;4.15;;;;;;;15.98;63.18;98587.25;4996629;28;20057;-61
2021/10/21 08:32:02;;;;;;;6.40;4.00;;;;;;;16.10;62.76;98576.47;4995879;28;20133;-62
2021/10/21 08:34:35;;;;;;;5.05;3.33;;;;;;;16.57;62.14;98638.94;4996766;28;20387;-61
2021/10/21 08:37:08;;;;;;;6.35;3.83;;;;;;;16.82;61.81;98636.16;4996371;28;20046;-61
2021/10/21 08:39:42;;;;;;;5.85;3.50;;;;;;;16.91;61.65;98640.94;4996202;28;20058;-61
2021/10/21 08:42:16;;;;;;;5.68;3.50;;;;;;;16.97;61.59;98650.97;4996015;28;20046;-61
2021/10/21 08:44:50;;;;;;;6.60;3.75;;;;;;;17.02;61.07;98643.88;4995409;28;20073;-61
2021/10/21 08:47:24;;;;;;;6.15;4.10;;;;;;;17.16;60.95;98649.28;4996081;28;20131;-60
2021/10/21 08:49:58;;;;;;;6.05;3.80;;;;;;;17.20;61.29;98648.22;4995904;28;20050;-60
2021/10/21 08:52:27;;;;;;;6.82;4.05;;;;;;;17.22;60.70;98633.53;4995221;28;20065;-61
2021/10/21 08:54:57;;;;;;;;;;;;;;;17.35;60.18;98642.41;4996127;28;20049;-61
2021/10/21 08:57:29;;;;;;;6.47;3.45;;;;;;;17.31;60.00;98635.72;4995859;28;20330;-61
2021/10/21 09:00:04;;;;;;;7.18;3.58;;;;;;;17.26;60.03;98641.97;4995751;28;20065;-61
2021/10/21 09:02:43;;;;;;;5.20;3.15;;;;;;;17.30;59.84;98646.06;4995671;28;20057;-61
2021/10/21 09:05:19;;;;;;;5.80;3.55;;;;;;;17.29;60.10;98647.00;4995693;28;20054;-61
2021/10/21 09:08:06;;;;;;;6.53;3.78;;;;;;;17.21;59.95;98647.34;4995778;28;20062;-61
2021/10/21 09:10:44;;;;;;;5.57;3.65;;;;;;;17.46;60.26;98675.47;4995303;28;20051;-61
2021/10/21 09:13:23;;;;;;;7.85;4.53;;;;;;;17.51;60.21;98665.78;4995272;28;20050;-61
2021/10/21 09:16:00;;;;;;;4.65;3.13;;;;;;;17.59;59.65;98639.66;4995661;28;20054;-61
2021/10/21 09:18:42;;;;;;;7.57;4.03;;;;;;;17.72;59.59;98630.44;4995333;28;20480;-61
2021/10/21 09:21:31;;;;;;;6.57;3.78;;;;;;;17.79;59.72;98642.16;4995367;28;20104;-61
2021/10/21 09:24:25;;;;;;;5.88;3.28;;;;;;;17.81;59.59;98650.66;4995347;28;20046;-61
2021/10/21 09:27:09;;;;;;;6.25;4.22;;;;;;;17.79;59.22;98639.56;4995590;28;20113;-61
2021/10/21 09:29:40;;;;;;;5.53;3.63;;;;;;;17.41;59.23;98559.59;4995149;28;20495;-61
2021/10/21 09:32:13;;;;;;;5.07;3.70;;;;;;;17.73;59.34;98632.13;4995360;28;20385;-62
2021/10/21 09:34:53;;;;;;;7.82;3.63;;;;;;;17.88;59.35;98659.78;4995405;28;20057;-61
2021/10/21 09:37:25;;;;;;;5.55;3.55;;;;;;;17.79;59.39;98649.91;4995033;28;20121;-61
2021/10/21 09:39:58;;;;;;;5.95;3.05;;;;;;;17.70;59.50;98640.00;4995120;28;20052;-61
2021/10/21 09:42:32;;;;;;;6.60;3.45;;;;;;;17.74;59.24;98644.09;4994938;28;20053;-61
2021/10/21 09:45:14;;;;;;;5.00;3.28;;;;;;;18.03;59.55;98646.16;4994998;28;20054;-61
2021/10/21 09:47:49;;;;;;;8.50;3.97;;;;;;;18.11;59.18;98654.41;4995005;28;20484;-61
2021/10/21 09:50:25;;;;;;;6.30;3.65;;;;;;;18.23;59.14;98656.41;4994626;28;20492;-61
2021/10/21 09:53:09;;;;;;;5.40;3.40;;;;;;;18.35;58.63;98668.72;4994544;28;20436;-61
2021/10/21 09:55:39;;;;;;;5.13;3.28;;;;;;;18.49;57.92;98656.00;4992053;28;20042;-61
2021/10/21 09:58:11;;;;;;;6.03;3.20;;;;;;;18.71;57.66;98666.94;4994190;28;20042;-61
2021/10/21 10:00:42;;;;;;;4.75;3.05;;;;;;;18.77;57.65;98659.78;4994356;28;20488;-61
2021/10/21 10:03:17;;;;;;;5.57;3.45;;;;;;;18.81;57.28;98669.06;4994608;28;20097;-61
2021/10/21 10:05:49;;;;;;;5.65;3.22;;;;;;;18.96;57.06;98655.34;4994540;28;20051;-61
2021/10/21 10:08:20;;;;;;;4.75;3.03;;;;;;;18.97;57.09;98672.56;4994515;28;20050;-61
2021/10/21 10:10:51;;;;;;;7.25;3.20;;;;;;;19.05;56.80;98670.44;4994474;28;20046;-61
2021/10/21 10:13:28;;;;;;;4.78;2.97;;;;;;;19.03;56.74;98667.91;4994671;28;20374;-61
2021/10/21 10:16:01;;;;;;;4.45;2.58;;;;;;;19.13;56.05;98657.91;4994346;28;20507;-62
2021/10/21 10:18:42;;;;;;;5.30;3.10;;;;;;;19.07;56.06;98661.66;4994508;28;20046;-62
2021/10/21 10:21:21;;;;;;;4.75;2.80;;;;;;;19.01;55.75;98664.56;4994735;28;20515;-61
2021/10/21 10:23:57;;;;;;;4.57;2.77;;;;;;;19.13;55.55;98634.63;4994317;28;20060;-61
2021/10/21 10:26:41;;;;;;;4.82;2.75;;;;;;;19.26;54.95;98638.25;4994337;28;20046;-61
2021/10/21 10:29:14;;;;;;;5.88;2.85;;;;;;;19.43;55.10;98651.19;4994529;28;20050;-61
2021/10/21 10:31:45;;;;;;;4.97;3.15;;;;;;;19.52;54.88;98640.34;4995140;28;20459;-61
2021/10/21 10:34:42;;;;;;;9.82;2.95;;;;;;;19.58;54.54;98634.81;4994244;28;20492;-62
2021/10/21 10:37:35;;;;;;;5.80;2.85;;;;;;;19.67;54.03;98647.28;4990576;28;20132;-63
2021/10/21 10:40:10;;;;;;;5.00;2.80;;;;;;;19.62;54.03;98667.41;4994537;28;20141;-63
2021/10/21 10:43:01;;;;;;;4.97;3.08;;;;;;;19.49;54.50;98679.31;4994413;28;20488;-63
2021/10/21 10:45:58;;;;;;;5.22;2.83;;;;;;;19.27;54.87;98676.97;4989100;28;20050;-63
2021/10/21 10:48:55;;;;;;;4.93;2.90;;;;;;;19.17;55.11;98687.91;4985562;28;20047;-63
2021/10/21 10:51:57;;;;;;;4.78;2.85;;;;;;;19.00;55.54;98693.09;4994263;28;20050;-64
2021/10/21 10:54:48;;;;;;;6.53;2.90;;;;;;;18.86;55.87;98695.53;4993802;28;20047;-63
2021/10/21 10:57:50;;;;;;;5.63;3.08;;;;;;;18.79;56.07;98696.75;4993863;28;20447;-63
2021/10/21 11:00:44;;;;;;;4.75;3.00;;;;;;;18.74;56.07;98697.81;4993790;28;20081;-62
2021/10/21 11:03:14;;;;;;;5.38;3.05;;;;;;;18.76;56.29;98702.06;4994028;28;20046;-63
2021/10/21 11:05:55;;;;;;;4.80;2.83;;;;;;;18.84;56.39;98702.50;4993983;28;20498;-63
2021/10/21 11:08:47;;;;;;;4.97;2.92;;;;;;;18.92;56.84;98701.22;4995852;28;20050;-63
2021/10/21 11:11:44;;;;;;;5.13;2.85;;;;;;;18.98;56.42;98706.09;4997612;28;20052;-63
2021/10/21 11:14:16;;;;;;;5.38;2.90;;;;;;;18.99;56.47;98704.34;4997914;28;20467;-63
2021/10/21 11:16:49;;;;;;;6.18;2.80;;;;;;;19.01;56.35;98707.69;4997529;28;20054;-63
2021/10/21 11:19:39;;;;;;;4.30;2.85;;;;;;;19.01;56.54;98710.28;4997392;28;20043;-63
2021/10/21 11:22:10;;;;;;;5.72;3.10;;;;;;;18.99;56.33;98714.69;4997430;28;20061;-63
2021/10/21 11:24:57;;;;;;;4.10;2.70;;;;;;;19.02;56.12;98722.28;4997583;28;20512;-63
2021/10/21 11:27:29;;;;;;;5.93;2.65;;;;;;;18.88;56.10;98719.56;4997605;28;20042;-63
2021/10/21 11:30:06;;;;;;;6.68;2.85;;;;;;;18.86;56.47;98726.56;4997705;28;20050;-63
2021/10/21 11:32:37;;;;;;;4.13;2.55;;;;;;;18.91;56.52;98734.94;4997270;28;20096;-63
2021/10/21 11:35:09;;;;;;;5.18;2.95;;;;;;;18.92;56.84;98728.84;4997209;28;20054;-63
2021/10/21 11:37:44;;;;;;;8.13;2.75;;;;;;;18.91;56.90;98732.34;4997148;28;20080;-63
2021/10/21 11:40:25;;;;;;;5.22;2.88;;;;;;;18.92;57.09;98726.25;4997199;28;20547;-63
2021/10/21 11:42:59;;;;;;;7.45;3.38;;;;;;;18.95;57.05;98723.53;4997188;28;20404;-63
2021/10/21 11:45:32;;;;;;;25.27;4.72;;;;;;;18.95;57.79;98715.75;4997066;28;20137;-63
2021/10/21 11:48:05;;;;;;;120.60;13.88;;;;;;;18.97;57.28;98714.78;4997394;28;20068;-63
2021/10/21 11:50:40;;;;;;;11.10;3.55;;;;;;;18.89;57.53;98716.91;4996982;28;20134;-63
2021/10/21 11:53:13;;;;;;;25.88;5.57;;;;;;;18.92;57.40;98721.91;4996950;28;20055;-63
2021/10/21 11:55:43;;;;;;;22.90;5.25;;;;;;;18.83;57.93;98718.97;4996888;28;20136;-64
2021/10/21 11:58:15;;;;;;;6.15;3.30;;;;;;;18.79;58.28;98715.66;4996849;28;20133;-63
2021/10/21 12:00:49;;;;;;;5.45;2.83;;;;;;;18.86;57.93;98721.41;4996847;28;20108;-63